createdAt,value
2018-04-09T00:01:17.411Z,54.70
2018-04-09T00:03:44.097Z,51.20
2018-04-09T00:06:10.090Z,45.50
2018-04-09T00:08:36.797Z,50.87
2018-04-09T00:11:02.782Z,48.97
2018-04-09T00:13:29.540Z,47.53
2018-04-09T00:15:56.277Z,50.00
2018-04-09T00:18:22.239Z,59.17
2018-04-09T00:20:48.970Z,60.53
2018-04-09T00:23:14.975Z,49.83
2018-04-09T00:25:40.966Z,55.67
2018-04-09T00:28:06.970Z,56.90
2018-04-09T00:30:32.953Z,54.23
2018-04-09T00:32:59.019Z,56.30
2018-04-09T00:35:25.025Z,55.87
2018-04-09T00:37:51.013Z,51.67
2018-04-09T00:40:16.966Z,51.33
2018-04-09T00:42:43.701Z,51.90
2018-04-09T00:45:09.649Z,50.43
2018-04-09T00:47:35.627Z,53.73
2018-04-09T00:50:01.593Z,51.97
2018-04-09T00:52:27.570Z,54.10
2018-04-09T00:54:54.312Z,52.13
2018-04-09T00:57:21.038Z,53.73
2018-04-09T00:59:47.005Z,53.50
2018-04-09T01:02:12.990Z,49.97
2018-04-09T01:04:38.974Z,51.50
2018-04-09T01:07:04.978Z,55.43
2018-04-09T01:09:30.933Z,55.37
2018-04-09T01:11:56.997Z,56.20
2018-04-09T01:14:23.723Z,55.83
2018-04-09T01:16:49.693Z,57.57
2018-04-09T01:19:16.391Z,58.87
2018-04-09T01:21:42.380Z,51.57
2018-04-09T01:24:09.113Z,55.57
2018-04-09T01:26:35.090Z,54.33
2018-04-09T01:29:01.077Z,55.97
2018-04-09T01:31:27.068Z,57.83
2018-04-09T01:33:53.086Z,54.77
2018-04-09T01:36:19.785Z,56.33
2018-04-09T01:38:45.780Z,59.40
2018-04-09T01:41:11.819Z,53.10
2018-04-09T01:43:37.814Z,61.70
2018-04-09T01:46:03.769Z,50.80
2018-04-09T01:48:29.773Z,58.27
2018-04-09T01:50:55.759Z,54.00
2018-04-09T01:53:21.750Z,56.60
2018-04-09T01:55:47.711Z,57.20
2018-04-09T01:58:13.742Z,61.80
2018-04-09T02:00:39.703Z,56.80
2018-04-09T02:03:06.428Z,62.00
2018-04-09T02:05:32.385Z,57.37
2018-04-09T02:07:59.138Z,55.80
2018-04-09T02:10:25.891Z,57.37
2018-04-09T02:12:51.900Z,59.37
2018-04-09T02:15:17.920Z,55.87
2018-04-09T02:17:43.893Z,54.33
2018-04-09T02:20:10.630Z,54.90
2018-04-09T02:22:36.669Z,53.27
2018-04-09T02:25:03.018Z,56.77
2018-04-09T02:27:28.990Z,57.57
2018-04-09T02:29:55.042Z,59.47
2018-04-09T02:32:21.441Z,58.10
2018-04-09T02:34:47.445Z,58.53
2018-04-09T02:37:13.422Z,58.77
2018-04-09T02:39:40.165Z,53.90
2018-04-09T02:42:06.177Z,63.67
2018-04-09T02:44:32.142Z,63.80
2018-04-09T02:46:58.149Z,58.60
2018-04-09T02:49:24.173Z,56.90
2018-04-09T02:51:50.154Z,55.17
2018-04-09T02:54:16.164Z,59.30
2018-04-09T02:56:42.160Z,60.60
2018-04-09T02:59:08.162Z,63.80
2018-04-09T03:01:34.161Z,68.20
2018-04-09T03:04:00.140Z,57.60
2018-04-09T03:06:26.942Z,55.77
2018-04-09T03:08:52.928Z,57.23
2018-04-09T03:11:18.915Z,59.17
2018-04-09T03:13:44.901Z,59.30
2018-04-09T03:16:10.863Z,55.93
2018-04-09T03:18:36.865Z,61.50
2018-04-09T03:21:02.821Z,65.17
2018-04-09T03:23:29.566Z,83.17
2018-04-09T03:25:55.569Z,81.67
2018-04-09T03:28:21.583Z,101.23
2018-04-09T03:30:47.537Z,91.27
2018-04-09T03:33:13.551Z,71.93
2018-04-09T03:35:39.518Z,66.80
2018-04-09T03:38:05.540Z,70.20
2018-04-09T03:40:31.470Z,64.97
2018-04-09T03:42:57.525Z,58.60
2018-04-09T03:45:23.517Z,58.60
2018-04-09T03:47:49.481Z,57.83
2018-04-09T03:50:15.469Z,72.10
2018-04-09T03:52:41.447Z,75.57
2018-04-09T03:55:07.425Z,66.00
2018-04-09T03:57:33.414Z,64.60
2018-04-09T03:59:59.409Z,69.20
2018-04-09T04:02:25.394Z,59.87
2018-04-09T04:04:51.395Z,56.00
2018-04-09T04:07:18.105Z,59.87
2018-04-09T04:09:44.054Z,59.63
2018-04-09T04:12:10.045Z,64.37
2018-04-09T04:14:36.001Z,60.97
2018-04-09T04:17:14.509Z,56.07
2018-04-09T04:22:54.070Z,62.13
2018-04-09T04:25:20.773Z,70.57
2018-04-09T04:27:46.764Z,62.20
2018-04-09T04:30:13.498Z,67.33
2018-04-09T04:32:39.490Z,70.63
2018-04-09T04:35:05.442Z,71.80
2018-04-09T04:37:31.426Z,64.00
2018-04-09T04:39:58.149Z,75.10
2018-04-09T04:42:24.163Z,76.57
2018-04-09T04:44:50.142Z,79.37
2018-04-09T04:47:16.138Z,66.43
2018-04-09T04:49:42.168Z,66.10
2018-04-09T04:52:08.181Z,64.67
2018-04-09T04:54:34.139Z,65.80
2018-04-09T04:57:00.126Z,57.20
2018-04-09T04:59:26.117Z,63.90
2018-04-09T05:01:52.153Z,67.20
2018-04-09T05:04:18.133Z,59.30
2018-04-09T05:06:44.110Z,64.07
2018-04-09T05:09:10.119Z,64.03
2018-04-09T05:11:36.830Z,77.10
2018-04-09T05:14:02.850Z,59.97
2018-04-09T05:16:28.848Z,75.07
2018-04-09T05:18:55.624Z,70.20
2018-04-09T05:21:21.637Z,68.10
2018-04-09T05:23:48.329Z,74.63
2018-04-09T05:26:14.289Z,71.70
2018-04-09T05:28:40.281Z,66.00
2018-04-09T05:31:06.238Z,65.33
2018-04-09T05:33:32.227Z,66.37
2018-04-09T05:35:59.013Z,75.43
2018-04-09T05:38:24.999Z,66.63
2018-04-09T05:40:50.999Z,61.93
2018-04-09T05:43:16.985Z,67.93
2018-04-09T05:45:43.689Z,62.47
2018-04-09T05:48:09.693Z,63.03
2018-04-09T05:50:36.424Z,65.00
2018-04-09T05:53:02.443Z,70.63
2018-04-09T05:55:28.434Z,68.10
2018-04-09T05:57:54.409Z,62.50
2018-04-09T06:00:20.509Z,65.40
2018-04-09T06:02:46.464Z,62.37
2018-04-09T06:05:12.467Z,64.97
2018-04-09T06:07:38.466Z,62.07
2018-04-09T06:10:05.910Z,60.43
2018-04-09T06:12:31.879Z,70.20
2018-04-09T06:14:58.666Z,61.97
2018-04-09T06:17:24.708Z,66.70
2018-04-09T06:19:50.704Z,64.30
2018-04-09T06:22:16.690Z,69.73
2018-04-09T06:24:42.661Z,73.37
2018-04-09T06:27:08.656Z,60.50
2018-04-09T06:29:34.646Z,67.30
2018-04-09T06:32:01.726Z,62.30
2018-04-09T06:34:28.468Z,61.97
2018-04-09T06:36:54.529Z,67.97
2018-04-09T06:39:21.231Z,70.77
2018-04-09T06:41:47.265Z,65.80
2018-04-09T06:44:13.239Z,65.30
2018-04-09T06:46:39.234Z,66.87
2018-04-09T06:49:05.232Z,64.90
2018-04-09T06:51:31.185Z,63.80
2018-04-09T06:53:57.413Z,65.83
2018-04-09T06:56:23.430Z,65.00
2018-04-09T06:58:50.346Z,66.07
2018-04-09T07:01:16.314Z,65.50
2018-04-09T07:03:42.364Z,63.80
2018-04-09T07:06:08.313Z,57.63
2018-04-09T07:08:34.278Z,61.63
2018-04-09T07:11:00.294Z,60.27
2018-04-09T07:13:26.332Z,61.67
2018-04-09T07:15:52.394Z,63.83
2018-04-09T07:18:19.082Z,62.43
2018-04-09T07:20:45.048Z,60.20
2018-04-09T07:23:11.762Z,61.33
2018-04-09T07:25:37.754Z,59.40
2018-04-09T07:28:03.791Z,59.43
2018-04-09T07:30:29.850Z,61.33
2018-04-09T07:32:55.834Z,64.33
2018-04-09T07:35:22.565Z,59.87
2018-04-09T07:37:48.531Z,50.93
2018-04-09T07:40:15.266Z,56.63
2018-04-09T07:42:41.250Z,52.80
2018-04-09T07:45:07.241Z,55.43
2018-04-09T07:47:33.199Z,51.57
2018-04-09T07:49:59.198Z,50.40
2018-04-09T07:52:25.215Z,53.80
2018-04-09T07:54:51.221Z,51.07
2018-04-09T07:57:17.222Z,48.23
2018-04-09T07:59:43.217Z,51.90
2018-04-09T08:02:09.187Z,52.80
2018-04-09T08:04:35.184Z,50.80
2018-04-09T08:07:01.177Z,49.43
2018-04-09T08:09:27.922Z,48.70
2018-04-09T08:12:01.669Z,46.77
2018-04-09T08:14:27.656Z,47.67
2018-04-09T08:16:53.617Z,46.53
2018-04-09T08:19:20.353Z,47.60
2018-04-09T08:21:46.314Z,45.30
2018-04-09T08:24:13.054Z,52.57
2018-04-09T08:26:39.793Z,49.30
2018-04-09T08:29:05.790Z,45.10
2018-04-09T08:31:31.761Z,42.03
2018-04-09T08:33:57.769Z,45.10
2018-04-09T08:36:23.738Z,41.10
2018-04-09T08:38:49.738Z,41.23
2018-04-09T08:41:15.699Z,37.03
2018-04-09T08:43:41.655Z,39.47
2018-04-09T08:46:07.666Z,31.83
2018-04-09T08:48:33.626Z,40.47
2018-04-09T08:50:59.688Z,35.50
2018-04-09T08:53:26.450Z,37.10
2018-04-09T08:55:52.462Z,40.83
2018-04-09T08:58:19.158Z,34.80
2018-04-09T09:00:45.162Z,41.57
2018-04-09T09:03:11.957Z,34.80
2018-04-09T09:05:37.937Z,42.47
2018-04-09T09:08:03.903Z,34.17
2018-04-09T09:10:29.891Z,32.93
2018-04-09T09:12:55.903Z,36.37
2018-04-09T09:15:21.901Z,32.27
2018-04-09T09:17:48.609Z,31.40
2018-04-09T09:20:14.612Z,32.50
2018-04-09T09:22:40.585Z,33.10
2018-04-09T09:25:06.545Z,33.30
2018-04-09T09:27:32.531Z,32.20
2018-04-09T09:29:58.547Z,31.13
2018-04-09T09:32:24.578Z,31.87
2018-04-09T09:34:51.285Z,29.73
2018-04-09T09:37:17.296Z,31.00
2018-04-09T09:39:43.286Z,30.63
2018-04-09T09:42:09.981Z,30.47
2018-04-09T09:44:35.965Z,27.10
2018-04-09T09:47:01.929Z,32.03
2018-04-09T09:49:28.725Z,30.47
2018-04-09T09:51:54.703Z,26.83
2018-04-09T09:54:21.400Z,28.33
2018-04-09T09:56:47.390Z,27.20
2018-04-09T09:59:14.126Z,30.80
2018-04-09T10:01:42.119Z,25.77
2018-04-09T10:04:08.042Z,24.33
2018-04-09T10:06:34.001Z,25.10
2018-04-09T10:09:00.762Z,24.73
2018-04-09T10:11:26.775Z,27.37
2018-04-09T10:13:52.742Z,29.63
2018-04-09T10:16:18.729Z,25.77
2018-04-09T10:18:44.685Z,30.30
2018-04-09T10:21:10.673Z,21.13
2018-04-09T10:23:36.630Z,18.70
2018-04-09T10:26:02.618Z,19.50
2018-04-09T10:28:29.349Z,19.13
2018-04-09T10:30:55.377Z,18.23
2018-04-09T10:33:21.842Z,19.33
2018-04-09T10:35:48.604Z,18.13
2018-04-09T10:38:15.343Z,16.57
2018-04-09T10:40:42.113Z,16.03
2018-04-09T10:43:08.865Z,16.40
2018-04-09T10:45:34.845Z,17.63
2018-04-09T10:48:00.843Z,18.03
2018-04-09T10:50:27.710Z,16.10
2018-04-09T10:52:53.713Z,14.33
2018-04-09T10:55:19.678Z,13.80
2018-04-09T10:57:45.647Z,13.93
2018-04-09T11:00:11.638Z,13.30
2018-04-09T11:02:38.377Z,12.97
2018-04-09T11:05:04.360Z,11.93
2018-04-09T11:07:30.318Z,13.17
2018-04-09T11:09:56.370Z,13.73
2018-04-09T11:12:22.342Z,12.93
2018-04-09T11:14:49.050Z,13.30
2018-04-09T11:17:15.054Z,14.33
2018-04-09T11:19:41.042Z,13.23
2018-04-09T11:22:07.036Z,12.17
2018-04-09T11:24:33.038Z,12.77
2018-04-09T11:26:59.737Z,13.10
2018-04-09T11:29:25.723Z,12.03
2018-04-09T11:31:51.742Z,13.37
2018-04-09T11:34:17.690Z,12.70
2018-04-09T11:36:44.448Z,13.77
2018-04-09T11:39:11.260Z,15.00
2018-04-09T11:41:37.238Z,13.63
2018-04-09T11:44:03.194Z,14.13
2018-04-09T11:46:29.940Z,12.87
2018-04-09T11:49:03.812Z,13.37
2018-04-09T11:51:29.781Z,10.00
2018-04-09T11:53:55.784Z,11.20
2018-04-09T11:56:21.783Z,11.50
2018-04-09T11:58:47.753Z,11.87
2018-04-09T12:01:13.748Z,12.40
2018-04-09T12:03:40.464Z,13.40
2018-04-09T12:06:06.464Z,13.23
2018-04-09T12:08:32.456Z,13.93
2018-04-09T12:10:59.168Z,13.57
2018-04-09T12:13:25.233Z,13.07
2018-04-09T12:15:51.234Z,13.93
2018-04-09T12:18:17.224Z,10.80
2018-04-09T12:20:43.936Z,11.90
2018-04-09T12:23:09.938Z,12.37
2018-04-09T12:25:35.974Z,11.67
2018-04-09T12:28:01.976Z,12.00
2018-04-09T12:30:28.024Z,11.50
2018-04-09T12:32:54.762Z,12.60
2018-04-09T12:35:20.728Z,13.60
2018-04-09T12:37:47.608Z,13.00
2018-04-09T12:40:13.628Z,12.90
2018-04-09T12:42:39.595Z,12.63
2018-04-09T12:45:05.674Z,13.30
2018-04-09T12:47:31.671Z,13.07
2018-04-09T12:49:57.671Z,12.60
2018-04-09T12:52:23.628Z,14.20
2018-04-09T12:54:49.628Z,13.33
2018-04-09T12:57:16.329Z,13.93
2018-04-09T12:59:42.323Z,15.27
2018-04-09T13:02:09.097Z,15.07
2018-04-09T13:04:35.135Z,16.07
2018-04-09T13:07:01.103Z,14.30
2018-04-09T13:09:27.100Z,17.17
2018-04-09T13:11:53.140Z,15.50
2018-04-09T13:14:19.146Z,15.53
2018-04-09T13:16:45.847Z,14.63
2018-04-09T13:19:11.835Z,13.50
2018-04-09T13:21:37.840Z,12.93
2018-04-09T13:24:03.812Z,15.07
2018-04-09T13:26:30.543Z,13.57
2018-04-09T13:28:56.563Z,13.10
2018-04-09T13:31:22.525Z,12.47
2018-04-09T13:33:48.484Z,13.20
2018-04-09T13:36:15.219Z,14.43
2018-04-09T13:38:41.246Z,13.87
2018-04-09T13:41:08.271Z,13.00
2018-04-09T13:43:34.239Z,13.03
2018-04-09T13:46:00.252Z,15.07
2018-04-09T13:48:26.978Z,14.13
2018-04-09T13:50:52.946Z,11.50
2018-04-09T13:53:18.992Z,11.40
2018-04-09T13:55:44.956Z,12.00
2018-04-09T13:58:11.748Z,10.47
2018-04-09T14:00:37.747Z,11.07
2018-04-09T14:03:03.763Z,9.90
2018-04-09T14:05:30.020Z,11.50
2018-04-09T14:07:56.111Z,9.37
2018-04-09T14:10:22.127Z,10.93
2018-04-09T14:12:48.126Z,9.80
2018-04-09T14:15:14.180Z,10.33
2018-04-09T14:17:40.900Z,9.60
2018-04-09T14:20:06.904Z,11.20
2018-04-09T14:22:32.905Z,10.83
2018-04-09T14:24:58.980Z,10.70
2018-04-09T14:27:25.083Z,9.83
2018-04-09T14:29:51.148Z,11.03
2018-04-09T14:32:17.127Z,10.60
2018-04-09T14:34:43.159Z,11.10
2018-04-09T14:37:09.159Z,10.77
2018-04-09T14:39:35.112Z,11.37
2018-04-09T14:42:01.119Z,10.77
2018-04-09T14:44:27.860Z,10.43
2018-04-09T14:46:54.571Z,12.33
2018-04-09T14:49:20.548Z,11.20
2018-04-09T14:51:47.326Z,10.37
2018-04-09T14:54:13.357Z,10.83
2018-04-09T14:56:39.355Z,11.77
2018-04-09T14:59:06.111Z,11.90
2018-04-09T15:01:32.080Z,11.27
2018-04-09T15:03:58.864Z,10.23
2018-04-09T15:06:24.916Z,12.17
2018-04-09T15:08:50.887Z,9.83
2018-04-09T15:11:16.900Z,12.40
2018-04-09T15:13:42.969Z,12.80
2018-04-09T15:16:09.706Z,12.40
2018-04-09T15:18:35.732Z,12.60
2018-04-09T15:21:01.750Z,11.93
2018-04-09T15:23:27.736Z,11.83
2018-04-09T15:25:53.696Z,11.27
2018-04-09T15:28:19.721Z,11.70
2018-04-09T15:30:46.433Z,11.60
2018-04-09T15:33:12.468Z,12.90
2018-04-09T15:35:38.432Z,12.17
2018-04-09T15:38:04.442Z,13.83
2018-04-09T15:40:30.407Z,11.20
2018-04-09T15:42:56.476Z,12.90
2018-04-09T15:45:22.444Z,12.83
2018-04-09T15:47:48.493Z,11.77
2018-04-09T15:50:14.444Z,12.53
2018-04-09T15:52:40.448Z,12.53
2018-04-09T15:55:06.476Z,11.93
2018-04-09T15:57:32.453Z,13.03
2018-04-09T15:59:58.503Z,12.50
2018-04-09T16:02:25.272Z,12.13
2018-04-09T16:04:51.231Z,13.57
2018-04-09T16:07:18.152Z,13.37
2018-04-09T16:09:44.901Z,13.57
2018-04-09T16:12:11.614Z,13.40
2018-04-09T16:14:37.604Z,13.90
2018-04-09T16:17:04.336Z,12.70
2018-04-09T16:19:31.047Z,13.47
2018-04-09T16:21:57.056Z,14.40
2018-04-09T16:24:23.016Z,14.30
2018-04-09T16:26:48.982Z,16.10
2018-04-09T16:29:14.985Z,14.10
2018-04-09T16:31:40.989Z,14.37
2018-04-09T16:34:07.736Z,14.43
2018-04-09T16:36:34.436Z,14.30
2018-04-09T16:39:00.468Z,13.97
2018-04-09T16:41:26.447Z,13.47
2018-04-09T16:43:52.409Z,13.90
2018-04-09T16:46:19.168Z,15.20
2018-04-09T16:48:45.138Z,14.77
2018-04-09T16:51:11.136Z,14.47
2018-04-09T16:53:37.844Z,13.13
2018-04-09T16:56:03.865Z,17.63
2018-04-09T16:58:29.862Z,14.70
2018-04-09T17:00:56.635Z,13.87
2018-04-09T17:03:22.613Z,15.23
2018-04-09T17:05:48.649Z,14.30
2018-04-09T17:08:14.607Z,14.40
2018-04-09T17:10:40.639Z,12.33
2018-04-09T17:13:06.618Z,13.57
2018-04-09T17:15:32.612Z,14.87
2018-04-09T17:17:58.636Z,14.07
2018-04-09T17:20:24.615Z,12.50
2018-04-09T17:22:50.677Z,13.67
2018-04-09T17:25:16.726Z,13.93
2018-04-09T17:27:42.712Z,13.87
2018-04-09T17:30:09.423Z,14.27
2018-04-09T17:32:35.436Z,14.33
2018-04-09T17:35:01.406Z,15.30
2018-04-09T17:37:27.460Z,12.50
2018-04-09T17:39:54.180Z,13.57
2018-04-09T17:42:20.209Z,12.27
2018-04-09T17:44:46.172Z,13.43
2018-04-09T17:47:12.174Z,12.50
2018-04-09T17:49:38.192Z,13.40
2018-04-09T17:52:04.164Z,12.83
2018-04-09T17:54:30.164Z,14.43
2018-04-09T17:56:56.174Z,14.20
2018-04-09T17:59:22.916Z,14.93
2018-04-09T18:01:48.903Z,14.63
2018-04-09T18:04:14.860Z,20.60
2018-04-09T18:06:40.880Z,13.70
2018-04-09T18:09:06.886Z,15.70
2018-04-09T18:11:33.608Z,16.20
2018-04-09T18:13:59.612Z,17.63
2018-04-09T18:16:25.623Z,19.33
2018-04-09T18:18:51.612Z,21.50
2018-04-09T18:21:17.612Z,15.90
2018-04-09T18:23:43.588Z,20.17
2018-04-09T18:26:09.576Z,18.00
2018-04-09T18:28:35.564Z,78.67
2018-04-09T18:31:01.597Z,19.70
2018-04-09T18:33:27.673Z,128.87
2018-04-09T18:35:54.367Z,175.17
2018-04-09T18:38:20.328Z,164.83
2018-04-09T18:40:46.319Z,123.00
2018-04-09T18:43:12.299Z,68.63
2018-04-09T18:45:38.287Z,48.27
2018-04-09T18:48:04.283Z,32.17
2018-04-09T18:50:30.256Z,19.97
2018-04-09T18:52:56.245Z,25.57
2018-04-09T18:55:22.249Z,32.83
2018-04-09T18:57:48.219Z,29.93
2018-04-09T19:00:14.243Z,22.87
2018-04-09T19:02:40.216Z,19.30
2018-04-09T19:05:06.980Z,29.30
2018-04-09T19:07:32.937Z,29.13
2018-04-09T19:09:58.912Z,37.67
2018-04-09T19:12:24.999Z,37.00
2018-04-09T19:14:50.992Z,38.23
2018-04-09T19:17:16.980Z,50.93
2018-04-09T19:19:43.024Z,32.47
2018-04-09T19:22:09.048Z,36.10
2018-04-09T19:24:35.047Z,28.57
2018-04-09T19:27:01.008Z,32.27
2018-04-09T19:29:27.025Z,31.17
2018-04-09T19:31:53.723Z,24.10
2018-04-09T19:34:19.723Z,20.37
2018-04-09T19:36:52.524Z,18.57
2018-04-09T19:39:24.621Z,17.20
2018-04-09T19:41:50.634Z,26.67
2018-04-09T19:44:17.335Z,22.10
2018-04-09T19:46:43.319Z,21.90
2018-04-09T19:49:10.077Z,22.97
2018-04-09T19:51:36.785Z,26.23
2018-04-09T19:54:02.795Z,22.53
2018-04-09T19:56:28.808Z,21.27
2018-04-09T19:58:55.599Z,17.80
2018-04-09T20:01:21.591Z,16.77
2018-04-09T20:03:48.336Z,17.70
2018-04-09T20:06:14.333Z,18.37
2018-04-09T20:08:40.304Z,21.53
2018-04-09T20:11:06.320Z,21.83
2018-04-09T20:13:32.350Z,22.07
2018-04-09T20:15:58.316Z,24.80
2018-04-09T20:18:24.304Z,21.17
2018-04-09T20:20:50.260Z,24.50
2018-04-09T20:23:16.263Z,28.13
2018-04-09T20:25:42.290Z,31.47
2018-04-09T20:28:08.345Z,30.63
2018-04-09T20:30:34.331Z,26.97
2018-04-09T20:33:00.315Z,24.33
2018-04-09T20:35:26.368Z,24.13
2018-04-09T20:37:52.344Z,21.23
2018-04-09T20:40:18.320Z,21.30
2018-04-09T20:42:44.348Z,23.60
2018-04-09T20:45:10.308Z,26.73
2018-04-09T20:47:36.279Z,23.60
2018-04-09T20:50:02.272Z,21.37
2018-04-09T20:52:28.283Z,22.13
2018-04-09T20:54:55.014Z,24.47
2018-04-09T20:57:21.004Z,23.07
2018-04-09T20:59:47.023Z,19.70
2018-04-09T21:02:13.023Z,24.23
2018-04-09T21:04:38.988Z,25.40
2018-04-09T21:07:05.725Z,22.20
2018-04-09T21:09:32.431Z,21.37
2018-04-09T21:11:58.442Z,21.03
2018-04-09T21:14:24.435Z,22.53
2018-04-09T21:16:50.419Z,20.30
2018-04-09T21:19:16.415Z,22.40
2018-04-09T21:21:42.378Z,21.77
2018-04-09T21:24:08.387Z,19.53
2018-04-09T21:26:34.347Z,18.67
2018-04-09T21:29:00.335Z,20.23
2018-04-09T21:31:26.347Z,19.43
2018-04-09T21:33:52.299Z,17.70
2018-04-09T21:36:18.261Z,20.63
2018-04-09T21:38:44.243Z,21.40
2018-04-09T21:41:10.208Z,20.73
2018-04-09T21:43:36.476Z,20.83
2018-04-09T21:46:02.431Z,46.47
2018-04-09T21:48:29.171Z,29.40
2018-04-09T21:50:55.141Z,28.70
2018-04-09T21:53:21.143Z,24.73
2018-04-09T21:55:47.096Z,22.40
2018-04-09T21:58:13.804Z,21.43
2018-04-09T22:00:39.814Z,20.60
2018-04-09T22:03:05.773Z,21.40
2018-04-09T22:05:31.770Z,21.43
2018-04-09T22:07:57.767Z,19.87
2018-04-09T22:10:23.751Z,22.93
2018-04-09T22:12:49.704Z,18.47
2018-04-09T22:15:16.575Z,20.30
2018-04-09T22:17:42.616Z,20.07
2018-04-09T22:20:08.593Z,21.90
2018-04-09T22:22:35.320Z,19.80
2018-04-09T22:25:01.292Z,20.37
2018-04-09T22:27:27.279Z,21.13
2018-04-09T22:29:53.275Z,24.90
2018-04-09T22:32:19.260Z,24.40
2018-04-09T22:34:45.220Z,21.03
2018-04-09T22:37:11.967Z,23.57
2018-04-09T22:39:39.263Z,26.03
2018-04-09T22:42:05.231Z,21.70
2018-04-09T22:44:31.232Z,22.00
2018-04-09T22:46:57.207Z,22.57
2018-04-09T22:49:23.200Z,20.20
2018-04-09T22:51:49.164Z,20.43
2018-04-09T22:54:15.160Z,23.50
2018-04-09T22:56:41.992Z,21.43
2018-04-09T22:59:07.951Z,23.23
2018-04-09T23:01:34.700Z,22.93
2018-04-09T23:04:01.404Z,23.80
2018-04-09T23:06:27.435Z,23.57
2018-04-09T23:08:53.387Z,25.50
2018-04-09T23:11:19.350Z,23.00
2018-04-09T23:13:45.346Z,24.53
2018-04-09T23:16:11.383Z,26.90
2018-04-09T23:18:37.343Z,25.37
2018-04-09T23:21:03.343Z,25.60
2018-04-09T23:23:29.316Z,23.50
2018-04-09T23:25:55.324Z,28.10
2018-04-09T23:28:21.287Z,28.67
2018-04-09T23:30:47.279Z,27.90
2018-04-09T23:33:13.239Z,27.03
2018-04-09T23:35:39.228Z,25.27
2018-04-09T23:38:05.957Z,24.83
2018-04-09T23:40:31.936Z,24.50
2018-04-09T23:42:57.979Z,24.40
2018-04-09T23:45:23.936Z,27.00
2018-04-09T23:47:49.923Z,28.30
2018-04-09T23:50:16.616Z,25.70
2018-04-09T23:52:42.576Z,25.90
2018-04-09T23:55:08.555Z,27.13
2018-04-09T23:57:34.507Z,25.33
